sensor_id;sensor_type;location;lat;lon;timestamp;pressure;altitude;pressure_sealevel;temperature;humidity
78839;BME280;68405;47.190;27.558;2023-04-25T00:00:10;98995.17;;;9.75;66.81
78839;BME280;68405;47.190;27.558;2023-04-25T00:02:59;98990.41;;;9.57;66.85
78839;BME280;68405;47.190;27.558;2023-04-25T00:05:28;98992.70;;;9.44;66.78
78839;BME280;68405;47.190;27.558;2023-04-25T00:07:59;98992.66;;;9.33;67.46
78839;BME280;68405;47.190;27.558;2023-04-25T00:10:28;98991.88;;;9.24;66.75
78839;BME280;68405;47.190;27.558;2023-04-25T00:12:57;98993.23;;;9.16;65.81
78839;BME280;68405;47.190;27.558;2023-04-25T00:15:26;98990.84;;;9.07;67.15
78839;BME280;68405;47.190;27.558;2023-04-25T00:17:55;98989.42;;;9.00;67.60
78839;BME280;68405;47.190;27.558;2023-04-25T00:20:24;98985.11;;;8.91;68.95
78839;BME280;68405;47.190;27.558;2023-04-25T00:22:53;98984.48;;;8.85;67.50
78839;BME280;68405;47.190;27.558;2023-04-25T00:25:23;98982.33;;;8.79;69.69
78839;BME280;68405;47.190;27.558;2023-04-25T00:27:52;98978.53;;;8.75;68.24
78839;BME280;68405;47.190;27.558;2023-04-25T00:30:21;98975.81;;;8.69;68.66
78839;BME280;68405;47.190;27.558;2023-04-25T00:32:50;98972.21;;;8.64;70.81
78839;BME280;68405;47.190;27.558;2023-04-25T00:35:19;98970.30;;;8.60;70.75
78839;BME280;68405;47.190;27.558;2023-04-25T00:37:49;98970.30;;;8.55;69.50
78839;BME280;68405;47.190;27.558;2023-04-25T00:40:18;98972.75;;;8.51;69.52
78839;BME280;68405;47.190;27.558;2023-04-25T00:42:47;98963.85;;;8.48;70.74
78839;BME280;68405;47.190;27.558;2023-04-25T00:45:16;98963.76;;;8.46;70.69
78839;BME280;68405;47.190;27.558;2023-04-25T00:47:46;98962.73;;;8.45;69.84
78839;BME280;68405;47.190;27.558;2023-04-25T00:50:15;98962.84;;;8.43;70.04
78839;BME280;68405;47.190;27.558;2023-04-25T00:52:45;98959.64;;;8.40;70.26
78839;BME280;68405;47.190;27.558;2023-04-25T00:55:14;98955.77;;;8.38;71.47
78839;BME280;68405;47.190;27.558;2023-04-25T00:57:44;98954.22;;;8.37;69.84
78839;BME280;68405;47.190;27.558;2023-04-25T01:00:14;98955.94;;;8.38;70.31
78839;BME280;68405;47.190;27.558;2023-04-25T01:02:44;98948.46;;;8.39;69.47
78839;BME280;68405;47.190;27.558;2023-04-25T01:05:13;98950.23;;;8.37;68.48
78839;BME280;68405;47.190;27.558;2023-04-25T01:07:42;98943.35;;;8.37;69.13
78839;BME280;68405;47.190;27.558;2023-04-25T01:10:11;98941.56;;;8.38;68.54
78839;BME280;68405;47.190;27.558;2023-04-25T01:12:40;98942.05;;;8.38;68.49
78839;BME280;68405;47.190;27.558;2023-04-25T01:15:10;98938.73;;;8.40;68.29
78839;BME280;68405;47.190;27.558;2023-04-25T01:17:40;98940.42;;;8.40;69.24
78839;BME280;68405;47.190;27.558;2023-04-25T01:20:12;98938.55;;;8.39;68.82
78839;BME280;68405;47.190;27.558;2023-04-25T01:22:43;98938.55;;;8.39;70.00
78839;BME280;68405;47.190;27.558;2023-04-25T01:25:12;98939.41;;;8.40;70.32
78839;BME280;68405;47.190;27.558;2023-04-25T01:27:41;98935.52;;;8.38;70.15
78839;BME280;68405;47.190;27.558;2023-04-25T01:30:11;98933.14;;;8.37;70.37
78839;BME280;68405;47.190;27.558;2023-04-25T01:32:41;98933.74;;;8.35;70.19
78839;BME280;68405;47.190;27.558;2023-04-25T01:35:11;98931.02;;;8.33;71.16
78839;BME280;68405;47.190;27.558;2023-04-25T01:37:40;98927.43;;;8.32;70.29
78839;BME280;68405;47.190;27.558;2023-04-25T01:40:11;98926.27;;;8.31;69.20
78839;BME280;68405;47.190;27.558;2023-04-25T01:42:43;98925.00;;;8.28;71.35
78839;BME280;68405;47.190;27.558;2023-04-25T01:45:12;98924.79;;;8.29;70.79
78839;BME280;68405;47.190;27.558;2023-04-25T01:47:41;98926.85;;;8.30;70.29
78839;BME280;68405;47.190;27.558;2023-04-25T01:50:12;98921.88;;;8.29;70.42
78839;BME280;68405;47.190;27.558;2023-04-25T01:52:41;98921.55;;;8.28;71.30
78839;BME280;68405;47.190;27.558;2023-04-25T01:55:11;98917.90;;;8.29;70.24
78839;BME280;68405;47.190;27.558;2023-04-25T01:57:40;98913.96;;;8.32;70.08
78839;BME280;68405;47.190;27.558;2023-04-25T02:00:11;98904.71;;;8.34;69.12
78839;BME280;68405;47.190;27.558;2023-04-25T02:02:40;98894.31;;;8.34;69.51
78839;BME280;68405;47.190;27.558;2023-04-25T02:05:10;98898.05;;;8.36;69.86
78839;BME280;68405;47.190;27.558;2023-04-25T02:07:38;98898.31;;;8.38;69.79
78839;BME280;68405;47.190;27.558;2023-04-25T02:10:09;98895.48;;;8.39;69.45
78839;BME280;68405;47.190;27.558;2023-04-25T02:12:38;98886.02;;;8.42;68.11
78839;BME280;68405;47.190;27.558;2023-04-25T02:15:09;98883.23;;;8.43;69.01
78839;BME280;68405;47.190;27.558;2023-04-25T02:17:38;98882.52;;;8.43;69.60
78839;BME280;68405;47.190;27.558;2023-04-25T02:20:10;98881.95;;;8.45;69.49
78839;BME280;68405;47.190;27.558;2023-04-25T02:22:39;98884.90;;;8.44;69.37
78839;BME280;68405;47.190;27.558;2023-04-25T02:25:10;98889.30;;;8.43;70.40
78839;BME280;68405;47.190;27.558;2023-04-25T02:27:40;98885.89;;;8.41;70.39
78839;BME280;68405;47.190;27.558;2023-04-25T02:30:10;98887.38;;;8.39;71.16
78839;BME280;68405;47.190;27.558;2023-04-25T02:32:39;98889.00;;;8.37;70.63
78839;BME280;68405;47.190;27.558;2023-04-25T02:35:09;98889.39;;;8.36;69.22
78839;BME280;68405;47.190;27.558;2023-04-25T02:37:39;98889.60;;;8.35;70.59
78839;BME280;68405;47.190;27.558;2023-04-25T02:40:10;98892.02;;;8.35;70.47
78839;BME280;68405;47.190;27.558;2023-04-25T02:42:39;98889.48;;;8.38;69.68
78839;BME280;68405;47.190;27.558;2023-04-25T02:45:10;98894.13;;;8.38;70.10
78839;BME280;68405;47.190;27.558;2023-04-25T02:47:39;98890.16;;;8.38;69.36
78839;BME280;68405;47.190;27.558;2023-04-25T02:50:09;98889.14;;;8.38;69.40
78839;BME280;68405;47.190;27.558;2023-04-25T02:52:39;98887.45;;;8.37;71.39
78839;BME280;68405;47.190;27.558;2023-04-25T02:55:09;98887.36;;;8.39;70.10
78839;BME280;68405;47.190;27.558;2023-04-25T02:57:38;98885.41;;;8.40;70.55
78839;BME280;68405;47.190;27.558;2023-04-25T03:00:10;98887.10;;;8.41;69.89
78839;BME280;68405;47.190;27.558;2023-04-25T03:02:39;98887.03;;;8.43;70.14
78839;BME280;68405;47.190;27.558;2023-04-25T03:05:09;98885.45;;;8.44;70.04
78839;BME280;68405;47.190;27.558;2023-04-25T03:07:38;98886.21;;;8.46;69.29
78839;BME280;68405;47.190;27.558;2023-04-25T03:10:09;98884.52;;;8.50;68.49
78839;BME280;68405;47.190;27.558;2023-04-25T03:12:38;98886.42;;;8.54;68.36
78839;BME280;68405;47.190;27.558;2023-04-25T03:15:09;98885.44;;;8.61;68.19
78839;BME280;68405;47.190;27.558;2023-04-25T03:17:38;98884.67;;;8.67;67.68
78839;BME280;68405;47.190;27.558;2023-04-25T03:20:09;98884.42;;;8.73;67.80
78839;BME280;68405;47.190;27.558;2023-04-25T03:22:39;98884.66;;;8.79;66.97
78839;BME280;68405;47.190;27.558;2023-04-25T03:25:09;98893.84;;;8.88;66.32
78839;BME280;68405;47.190;27.558;2023-04-25T03:27:38;98886.43;;;8.95;66.19
78839;BME280;68405;47.190;27.558;2023-04-25T03:30:09;98887.25;;;9.00;65.88
78839;BME280;68405;47.190;27.558;2023-04-25T03:32:38;98891.61;;;9.07;65.07
78839;BME280;68405;47.190;27.558;2023-04-25T03:35:09;98892.64;;;9.14;65.06
78839;BME280;68405;47.190;27.558;2023-04-25T03:37:37;98891.84;;;9.21;64.63
78839;BME280;68405;47.190;27.558;2023-04-25T03:40:10;98892.92;;;9.28;64.29
78839;BME280;68405;47.190;27.558;2023-04-25T03:42:39;98886.88;;;9.35;64.28
78839;BME280;68405;47.190;27.558;2023-04-25T03:45:09;98889.29;;;9.39;64.41
78839;BME280;68405;47.190;27.558;2023-04-25T03:47:38;98894.52;;;9.42;64.48
78839;BME280;68405;47.190;27.558;2023-04-25T03:50:09;98895.30;;;9.48;63.97
78839;BME280;68405;47.190;27.558;2023-04-25T03:52:38;98896.79;;;9.53;63.85
78839;BME280;68405;47.190;27.558;2023-04-25T03:55:08;98897.80;;;9.58;63.89
78839;BME280;68405;47.190;27.558;2023-04-25T03:57:37;98900.29;;;9.64;63.79
78839;BME280;68405;47.190;27.558;2023-04-25T04:00:09;98901.19;;;9.71;63.48
78839;BME280;68405;47.190;27.558;2023-04-25T04:02:39;98899.53;;;9.77;63.55
78839;BME280;68405;47.190;27.558;2023-04-25T04:05:09;98898.13;;;9.84;63.42
78839;BME280;68405;47.190;27.558;2023-04-25T04:07:39;98894.94;;;9.93;63.23
78839;BME280;68405;47.190;27.558;2023-04-25T04:10:11;98897.72;;;10.04;62.59
78839;BME280;68405;47.190;27.558;2023-04-25T04:12:40;98897.21;;;10.18;62.49
78839;BME280;68405;47.190;27.558;2023-04-25T04:15:11;98896.99;;;10.30;62.07
78839;BME280;68405;47.190;27.558;2023-04-25T04:17:40;98894.98;;;10.47;61.41
78839;BME280;68405;47.190;27.558;2023-04-25T04:20:10;98898.89;;;10.69;61.43
78839;BME280;68405;47.190;27.558;2023-04-25T04:22:40;98895.23;;;10.80;59.67
78839;BME280;68405;47.190;27.558;2023-04-25T04:25:10;98899.60;;;11.00;60.26
78839;BME280;68405;47.190;27.558;2023-04-25T04:27:40;98889.98;;;11.27;59.01
78839;BME280;68405;47.190;27.558;2023-04-25T04:30:11;98893.88;;;11.65;58.62
78839;BME280;68405;47.190;27.558;2023-04-25T04:32:40;98893.75;;;11.92;56.92
78839;BME280;68405;47.190;27.558;2023-04-25T04:35:10;98895.14;;;12.45;57.48
78839;BME280;68405;47.190;27.558;2023-04-25T04:37:39;98893.48;;;13.23;54.57
78839;BME280;68405;47.190;27.558;2023-04-25T04:40:10;98889.54;;;13.97;54.41
78839;BME280;68405;47.190;27.558;2023-04-25T04:42:40;98891.68;;;14.29;49.94
78839;BME280;68405;47.190;27.558;2023-04-25T04:45:11;98892.85;;;14.83;50.72
78839;BME280;68405;47.190;27.558;2023-04-25T04:47:40;98888.54;;;15.66;48.83
78839;BME280;68405;47.190;27.558;2023-04-25T04:50:10;98889.80;;;15.92;46.13
78839;BME280;68405;47.190;27.558;2023-04-25T04:52:39;98886.52;;;16.32;49.01
78839;BME280;68405;47.190;27.558;2023-04-25T04:55:09;98887.77;;;17.05;47.46
78839;BME280;68405;47.190;27.558;2023-04-25T04:57:38;98885.60;;;17.66;46.99
78839;BME280;68405;47.190;27.558;2023-04-25T05:00:10;98884.93;;;17.50;44.40
78839;BME280;68405;47.190;27.558;2023-04-25T05:02:40;98883.93;;;16.72;45.05
78839;BME280;68405;47.190;27.558;2023-04-25T05:05:09;98880.39;;;16.14;46.18
78839;BME280;68405;47.190;27.558;2023-04-25T05:07:39;98881.10;;;15.99;46.68
78839;BME280;68405;47.190;27.558;2023-04-25T05:10:09;98878.17;;;15.84;46.83
78839;BME280;68405;47.190;27.558;2023-04-25T05:12:38;98878.07;;;15.83;47.78
78839;BME280;68405;47.190;27.558;2023-04-25T05:15:09;98871.64;;;15.60;47.35
78839;BME280;68405;47.190;27.558;2023-04-25T05:17:38;98870.84;;;14.98;48.16
78839;BME280;68405;47.190;27.558;2023-04-25T05:20:09;98871.04;;;14.80;48.47
78839;BME280;68405;47.190;27.558;2023-04-25T05:22:38;98872.66;;;14.92;49.00
78839;BME280;68405;47.190;27.558;2023-04-25T05:25:10;98877.05;;;15.02;48.84
78839;BME280;68405;47.190;27.558;2023-04-25T05:27:39;98874.55;;;15.00;48.62
78839;BME280;68405;47.190;27.558;2023-04-25T05:30:10;98873.38;;;15.05;48.55
78839;BME280;68405;47.190;27.558;2023-04-25T05:32:39;98871.40;;;15.11;48.90
78839;BME280;68405;47.190;27.558;2023-04-25T05:35:09;98868.23;;;15.09;48.62
78839;BME280;68405;47.190;27.558;2023-04-25T05:37:38;98867.30;;;15.14;48.39
78839;BME280;68405;47.190;27.558;2023-04-25T05:40:09;98861.01;;;15.27;48.79
78839;BME280;68405;47.190;27.558;2023-04-25T05:42:38;98861.33;;;15.44;48.50
78839;BME280;68405;47.190;27.558;2023-04-25T05:45:09;98858.58;;;15.86;47.83
78839;BME280;68405;47.190;27.558;2023-04-25T05:47:38;98859.55;;;15.89;46.70
78839;BME280;68405;47.190;27.558;2023-04-25T05:50:09;98858.23;;;16.08;47.18
78839;BME280;68405;47.190;27.558;2023-04-25T05:52:38;98853.63;;;16.48;46.63
78839;BME280;68405;47.190;27.558;2023-04-25T05:55:08;98849.84;;;16.87;45.93
78839;BME280;68405;47.190;27.558;2023-04-25T05:57:38;98856.94;;;17.54;44.80
78839;BME280;68405;47.190;27.558;2023-04-25T06:00:11;98846.83;;;18.25;42.69
78839;BME280;68405;47.190;27.558;2023-04-25T06:02:41;98842.73;;;19.31;42.70
78839;BME280;68405;47.190;27.558;2023-04-25T06:05:10;98840.52;;;20.14;40.47
78839;BME280;68405;47.190;27.558;2023-04-25T06:07:40;98840.41;;;20.62;38.61
78839;BME280;68405;47.190;27.558;2023-04-25T06:10:10;98841.10;;;20.85;38.33
78839;BME280;68405;47.190;27.558;2023-04-25T06:12:39;98846.84;;;21.09;36.84
78839;BME280;68405;47.190;27.558;2023-04-25T06:15:09;98851.45;;;21.31;36.18
78839;BME280;68405;47.190;27.558;2023-04-25T06:17:39;98849.92;;;21.43;36.84
78839;BME280;68405;47.190;27.558;2023-04-25T06:20:10;98843.16;;;21.30;37.83
78839;BME280;68405;47.190;27.558;2023-04-25T06:22:40;98841.94;;;21.10;36.31
78839;BME280;68405;47.190;27.558;2023-04-25T06:25:09;98836.52;;;21.46;36.80
78839;BME280;68405;47.190;27.558;2023-04-25T06:27:39;98832.41;;;22.02;37.04
78839;BME280;68405;47.190;27.558;2023-04-25T06:30:10;98838.84;;;22.01;37.08
78839;BME280;68405;47.190;27.558;2023-04-25T06:32:40;98838.38;;;20.93;36.93
78839;BME280;68405;47.190;27.558;2023-04-25T06:35:10;98838.79;;;20.24;38.32
78839;BME280;68405;47.190;27.558;2023-04-25T06:37:39;98836.33;;;19.56;39.24
78839;BME280;68405;47.190;27.558;2023-04-25T06:40:10;98837.00;;;18.81;40.50
78839;BME280;68405;47.190;27.558;2023-04-25T06:42:39;98836.23;;;18.34;41.46
78839;BME280;68405;47.190;27.558;2023-04-25T06:45:10;98840.27;;;17.88;42.18
78839;BME280;68405;47.190;27.558;2023-04-25T06:47:40;98843.91;;;17.45;43.35
78839;BME280;68405;47.190;27.558;2023-04-25T06:50:10;98841.89;;;16.64;45.38
78839;BME280;68405;47.190;27.558;2023-04-25T06:52:39;98843.79;;;16.44;46.02
78839;BME280;68405;47.190;27.558;2023-04-25T06:55:10;98845.15;;;16.45;45.35
78839;BME280;68405;47.190;27.558;2023-04-25T06:57:39;98843.17;;;16.12;46.60
78839;BME280;68405;47.190;27.558;2023-04-25T07:00:11;98843.56;;;16.02;47.00
78839;BME280;68405;47.190;27.558;2023-04-25T07:02:40;98847.23;;;15.93;47.50
78839;BME280;68405;47.190;27.558;2023-04-25T07:05:12;98844.88;;;15.84;47.75
78839;BME280;68405;47.190;27.558;2023-04-25T07:07:41;98845.80;;;15.93;47.74
78839;BME280;68405;47.190;27.558;2023-04-25T07:10:11;98849.95;;;15.92;48.01
78839;BME280;68405;47.190;27.558;2023-04-25T07:12:40;98846.98;;;15.76;48.47
78839;BME280;68405;47.190;27.558;2023-04-25T07:15:10;98848.52;;;15.79;48.87
78839;BME280;68405;47.190;27.558;2023-04-25T07:17:40;98845.89;;;15.82;48.42
78839;BME280;68405;47.190;27.558;2023-04-25T07:20:10;98846.79;;;15.94;48.91
78839;BME280;68405;47.190;27.558;2023-04-25T07:22:39;98852.25;;;16.36;48.20
78839;BME280;68405;47.190;27.558;2023-04-25T07:25:10;98847.44;;;16.65;47.63
78839;BME280;68405;47.190;27.558;2023-04-25T07:27:39;98842.02;;;16.79;47.54
78839;BME280;68405;47.190;27.558;2023-04-25T07:30:10;98846.64;;;16.87;47.14
78839;BME280;68405;47.190;27.558;2023-04-25T07:32:40;98843.80;;;16.90;47.03
78839;BME280;68405;47.190;27.558;2023-04-25T07:35:10;98841.06;;;16.75;47.65
78839;BME280;68405;47.190;27.558;2023-04-25T07:37:39;98840.38;;;17.12;46.92
78839;BME280;68405;47.190;27.558;2023-04-25T07:40:10;98847.82;;;17.51;46.25
78839;BME280;68405;47.190;27.558;2023-04-25T07:42:40;98834.70;;;18.14;45.44
78839;BME280;68405;47.190;27.558;2023-04-25T07:45:10;98838.73;;;18.73;44.03
78839;BME280;68405;47.190;27.558;2023-04-25T07:47:40;98835.10;;;19.26;43.08
78839;BME280;68405;47.190;27.558;2023-04-25T07:50:10;98839.98;;;19.87;41.42
78839;BME280;68405;47.190;27.558;2023-04-25T07:52:40;98845.67;;;20.47;40.83
78839;BME280;68405;47.190;27.558;2023-04-25T07:55:10;98838.91;;;21.12;40.48
78839;BME280;68405;47.190;27.558;2023-04-25T07:57:39;98837.99;;;21.27;38.78
78839;BME280;68405;47.190;27.558;2023-04-25T08:00:12;98838.81;;;21.35;38.67
78839;BME280;68405;47.190;27.558;2023-04-25T08:02:41;98837.13;;;21.38;38.53
78839;BME280;68405;47.190;27.558;2023-04-25T08:05:11;98844.71;;;20.99;38.55
78839;BME280;68405;47.190;27.558;2023-04-25T08:07:42;98843.42;;;21.13;39.04
78839;BME280;68405;47.190;27.558;2023-04-25T08:10:11;98846.20;;;21.30;39.23
78839;BME280;68405;47.190;27.558;2023-04-25T08:12:41;98838.41;;;20.93;39.08
78839;BME280;68405;47.190;27.558;2023-04-25T08:15:11;98841.45;;;20.06;40.17
78839;BME280;68405;47.190;27.558;2023-04-25T08:17:42;98843.03;;;19.85;40.82
78839;BME280;68405;47.190;27.558;2023-04-25T08:20:13;98842.30;;;19.43;41.25
78839;BME280;68405;47.190;27.558;2023-04-25T08:22:43;98848.57;;;18.92;42.26
78839;BME280;68405;47.190;27.558;2023-04-25T08:25:12;98843.52;;;18.41;43.45
78839;BME280;68405;47.190;27.558;2023-04-25T08:27:41;98846.52;;;18.33;43.50
78839;BME280;68405;47.190;27.558;2023-04-25T08:30:12;98846.38;;;18.09;43.92
78839;BME280;68405;47.190;27.558;2023-04-25T08:32:41;98852.09;;;17.66;45.45
78839;BME280;68405;47.190;27.558;2023-04-25T08:35:10;98849.73;;;17.56;45.82
78839;BME280;68405;47.190;27.558;2023-04-25T08:37:40;98853.02;;;17.57;45.65
78839;BME280;68405;47.190;27.558;2023-04-25T08:40:14;98858.02;;;17.10;46.96
78839;BME280;68405;47.190;27.558;2023-04-25T08:42:44;98855.61;;;16.76;47.93
78839;BME280;68405;47.190;27.558;2023-04-25T08:45:15;98855.77;;;16.48;48.36
78839;BME280;68405;47.190;27.558;2023-04-25T08:47:46;98853.10;;;16.37;48.52
78839;BME280;68405;47.190;27.558;2023-04-25T08:50:17;98851.79;;;15.92;50.59
78839;BME280;68405;47.190;27.558;2023-04-25T08:52:48;98850.96;;;15.99;51.11
78839;BME280;68405;47.190;27.558;2023-04-25T08:55:21;98848.70;;;16.25;50.63
78839;BME280;68405;47.190;27.558;2023-04-25T08:57:52;98845.69;;;16.47;50.43
78839;BME280;68405;47.190;27.558;2023-04-25T09:00:24;98852.90;;;16.51;50.26
78839;BME280;68405;47.190;27.558;2023-04-25T09:02:54;98844.70;;;16.76;49.58
78839;BME280;68405;47.190;27.558;2023-04-25T09:05:25;98850.18;;;17.06;49.16
78839;BME280;68405;47.190;27.558;2023-04-25T09:07:57;98849.19;;;17.18;49.38
78839;BME280;68405;47.190;27.558;2023-04-25T09:10:29;98852.67;;;17.16;49.45
78839;BME280;68405;47.190;27.558;2023-04-25T09:13:09;98857.70;;;17.26;49.55
78839;BME280;68405;47.190;27.558;2023-04-25T09:15:49;98856.71;;;17.25;49.36
78839;BME280;68405;47.190;27.558;2023-04-25T09:18:26;98854.83;;;17.07;50.21
78839;BME280;68405;47.190;27.558;2023-04-25T09:20:57;98858.35;;;16.88;50.36
78839;BME280;68405;47.190;27.558;2023-04-25T09:23:27;98859.95;;;16.76;50.85
78839;BME280;68405;47.190;27.558;2023-04-25T09:25:57;98863.05;;;16.49;51.92
78839;BME280;68405;47.190;27.558;2023-04-25T09:28:27;98863.60;;;15.96;54.04
78839;BME280;68405;47.190;27.558;2023-04-25T09:30:57;98864.97;;;15.77;54.51
78839;BME280;68405;47.190;27.558;2023-04-25T09:33:32;98860.88;;;15.51;54.47
78839;BME280;68405;47.190;27.558;2023-04-25T09:36:05;98867.23;;;15.33;54.37
78839;BME280;68405;47.190;27.558;2023-04-25T09:38:42;98866.45;;;14.94;58.06
78839;BME280;68405;47.190;27.558;2023-04-25T09:41:12;98860.95;;;14.48;59.58
78839;BME280;68405;47.190;27.558;2023-04-25T09:43:46;98861.04;;;13.82;64.47
78839;BME280;68405;47.190;27.558;2023-04-25T09:46:19;98859.54;;;13.42;66.18
78839;BME280;68405;47.190;27.558;2023-04-25T09:48:50;98861.98;;;12.99;68.21
78839;BME280;68405;47.190;27.558;2023-04-25T09:51:27;98859.80;;;12.66;68.79
78839;BME280;68405;47.190;27.558;2023-04-25T09:53:56;98860.12;;;12.27;71.20
78839;BME280;68405;47.190;27.558;2023-04-25T09:56:27;98861.94;;;12.14;68.11
78839;BME280;68405;47.190;27.558;2023-04-25T09:59:01;98857.33;;;11.84;72.11
78839;BME280;68405;47.190;27.558;2023-04-25T10:01:31;98859.32;;;11.67;71.61
78839;BME280;68405;47.190;27.558;2023-04-25T10:04:02;98853.89;;;11.45;74.70
78839;BME280;68405;47.190;27.558;2023-04-25T10:06:33;98850.70;;;11.34;76.17
78839;BME280;68405;47.190;27.558;2023-04-25T10:09:04;98847.44;;;11.26;74.04
78839;BME280;68405;47.190;27.558;2023-04-25T10:11:36;98846.94;;;11.23;73.17
78839;BME280;68405;47.190;27.558;2023-04-25T10:14:07;98845.46;;;11.21;74.82
78839;BME280;68405;47.190;27.558;2023-04-25T10:16:37;98848.54;;;11.22;73.68
78839;BME280;68405;47.190;27.558;2023-04-25T10:19:08;98850.73;;;11.23;73.89
78839;BME280;68405;47.190;27.558;2023-04-25T10:21:46;98852.15;;;11.29;76.85
78839;BME280;68405;47.190;27.558;2023-04-25T10:24:18;98850.31;;;11.38;76.45
78839;BME280;68405;47.190;27.558;2023-04-25T10:26:48;98850.32;;;11.41;78.92
78839;BME280;68405;47.190;27.558;2023-04-25T10:29:25;98846.69;;;11.40;80.25
78839;BME280;68405;47.190;27.558;2023-04-25T10:31:54;98843.86;;;11.48;78.55
78839;BME280;68405;47.190;27.558;2023-04-25T10:34:40;98842.80;;;11.45;78.94
78839;BME280;68405;47.190;27.558;2023-04-25T10:37:13;98838.45;;;11.44;80.93
78839;BME280;68405;47.190;27.558;2023-04-25T10:39:43;98838.24;;;11.45;80.47
78839;BME280;68405;47.190;27.558;2023-04-25T10:42:12;98832.03;;;11.44;82.29
78839;BME280;68405;47.190;27.558;2023-04-25T10:45:03;98829.06;;;11.41;82.96
78839;BME280;68405;47.190;27.558;2023-04-25T10:47:36;98825.50;;;11.40;82.05
78839;BME280;68405;47.190;27.558;2023-04-25T10:50:10;98825.77;;;11.38;82.18
78839;BME280;68405;47.190;27.558;2023-04-25T10:52:39;98825.38;;;11.36;81.23
78839;BME280;68405;47.190;27.558;2023-04-25T10:55:09;98828.75;;;11.31;81.42
78839;BME280;68405;47.190;27.558;2023-04-25T10:57:40;98825.72;;;11.33;82.68
78839;BME280;68405;47.190;27.558;2023-04-25T11:00:13;98821.85;;;11.37;83.38
78839;BME280;68405;47.190;27.558;2023-04-25T11:02:45;98820.35;;;11.45;82.56
78839;BME280;68405;47.190;27.558;2023-04-25T11:05:22;98816.00;;;11.55;81.55
78839;BME280;68405;47.190;27.558;2023-04-25T11:07:53;98816.95;;;11.69;81.99
78839;BME280;68405;47.190;27.558;2023-04-25T11:10:28;98814.85;;;11.78;79.24
78839;BME280;68405;47.190;27.558;2023-04-25T11:12:58;98820.11;;;11.84;82.02
78839;BME280;68405;47.190;27.558;2023-04-25T11:15:28;98815.26;;;11.99;81.82
78839;BME280;68405;47.190;27.558;2023-04-25T11:17:58;98815.20;;;12.15;81.49
78839;BME280;68405;47.190;27.558;2023-04-25T11:20:27;98812.75;;;12.25;82.20
78839;BME280;68405;47.190;27.558;2023-04-25T11:22:58;98808.05;;;12.45;79.35
78839;BME280;68405;47.190;27.558;2023-04-25T11:25:28;98801.83;;;12.68;79.13
78839;BME280;68405;47.190;27.558;2023-04-25T11:27:59;98801.53;;;12.81;79.36
78839;BME280;68405;47.190;27.558;2023-04-25T11:30:29;98802.13;;;12.95;79.02
78839;BME280;68405;47.190;27.558;2023-04-25T11:32:59;98800.46;;;12.96;77.73
78839;BME280;68405;47.190;27.558;2023-04-25T11:35:28;98800.66;;;13.07;76.93
78839;BME280;68405;47.190;27.558;2023-04-25T11:37:58;98798.36;;;12.94;77.21
78839;BME280;68405;47.190;27.558;2023-04-25T11:40:28;98795.65;;;13.01;78.01
78839;BME280;68405;47.190;27.558;2023-04-25T11:43:00;98792.45;;;13.13;77.28
78839;BME280;68405;47.190;27.558;2023-04-25T11:45:30;98790.27;;;13.06;77.83
78839;BME280;68405;47.190;27.558;2023-04-25T11:47:59;98785.36;;;13.17;77.67
78839;BME280;68405;47.190;27.558;2023-04-25T11:50:30;98787.27;;;13.29;77.41
78839;BME280;68405;47.190;27.558;2023-04-25T11:52:59;98784.35;;;13.31;76.97
78839;BME280;68405;47.190;27.558;2023-04-25T11:55:31;98777.80;;;13.36;76.60
78839;BME280;68405;47.190;27.558;2023-04-25T11:58:00;98780.80;;;13.32;75.80
78839;BME280;68405;47.190;27.558;2023-04-25T12:00:30;98781.95;;;13.19;75.55
78839;BME280;68405;47.190;27.558;2023-04-25T12:03:00;98776.54;;;13.47;74.99
78839;BME280;68405;47.190;27.558;2023-04-25T12:05:31;98777.16;;;13.54;74.47
78839;BME280;68405;47.190;27.558;2023-04-25T12:08:15;98773.90;;;13.51;74.67
78839;BME280;68405;47.190;27.558;2023-04-25T12:10:46;98773.39;;;13.69;74.08
78839;BME280;68405;47.190;27.558;2023-04-25T12:13:21;98770.48;;;13.49;73.75
78839;BME280;68405;47.190;27.558;2023-04-25T12:15:51;98763.70;;;13.68;74.50
78839;BME280;68405;47.190;27.558;2023-04-25T12:18:24;98766.38;;;13.70;73.95
78839;BME280;68405;47.190;27.558;2023-04-25T12:20:55;98756.89;;;13.66;74.16
78839;BME280;68405;47.190;27.558;2023-04-25T12:23:28;98764.29;;;13.42;74.28
78839;BME280;68405;47.190;27.558;2023-04-25T12:25:58;98760.17;;;13.30;74.45
78839;BME280;68405;47.190;27.558;2023-04-25T12:28:27;98758.87;;;13.20;74.83
78839;BME280;68405;47.190;27.558;2023-04-25T12:31:00;98751.79;;;13.22;75.12
78839;BME280;68405;47.190;27.558;2023-04-25T12:33:31;98750.94;;;13.13;74.67
78839;BME280;68405;47.190;27.558;2023-04-25T12:36:02;98747.95;;;13.00;75.04
78839;BME280;68405;47.190;27.558;2023-04-25T12:38:38;98730.19;;;13.08;75.13
78839;BME280;68405;47.190;27.558;2023-04-25T12:41:07;98730.63;;;13.14;74.09
78839;BME280;68405;47.190;27.558;2023-04-25T12:43:37;98726.45;;;13.12;74.31
78839;BME280;68405;47.190;27.558;2023-04-25T12:46:07;98723.54;;;13.14;74.38
78839;BME280;68405;47.190;27.558;2023-04-25T12:48:36;98722.67;;;13.05;74.00
78839;BME280;68405;47.190;27.558;2023-04-25T12:51:06;98722.28;;;13.00;73.19
78839;BME280;68405;47.190;27.558;2023-04-25T12:53:35;98716.29;;;13.02;73.34
78839;BME280;68405;47.190;27.558;2023-04-25T12:56:07;98717.61;;;12.97;73.30
78839;BME280;68405;47.190;27.558;2023-04-25T12:58:36;98713.56;;;12.87;73.02
78839;BME280;68405;47.190;27.558;2023-04-25T13:01:06;98716.73;;;12.72;73.46
78839;BME280;68405;47.190;27.558;2023-04-25T13:03:35;98714.09;;;12.67;73.94
78839;BME280;68405;47.190;27.558;2023-04-25T13:06:06;98713.89;;;12.59;74.18
78839;BME280;68405;47.190;27.558;2023-04-25T13:08:35;98712.90;;;12.64;74.37